sensor_id;sensor_type;location;lat;lon;timestamp;P1;durP1;ratioP1;P2;durP2;ratioP2
70297;SDS011;57702;44.420;20.298;2022-10-18T00:00:39;6.05;;;2.92;;
70297;SDS011;57702;44.420;20.298;2022-10-18T00:03:05;2.05;;;1.95;;
70297;SDS011;57702;44.420;20.298;2022-10-18T00:05:32;2.55;;;2.28;;
70297;SDS011;57702;44.420;20.298;2022-10-18T00:07:58;4.80;;;2.58;;
70297;SDS011;57702;44.420;20.298;2022-10-18T00:10:24;5.75;;;1.90;;
70297;SDS011;57702;44.420;20.298;2022-10-18T00:12:51;1.50;;;1.40;;
70297;SDS011;57702;44.420;20.298;2022-10-18T00:15:17;3.00;;;2.22;;
70297;SDS011;57702;44.420;20.298;2022-10-18T00:17:43;4.82;;;2.22;;
70297;SDS011;57702;44.420;20.298;2022-10-18T00:20:09;4.38;;;2.60;;
70297;SDS011;57702;44.420;20.298;2022-10-18T00:22:36;4.50;;;2.03;;
70297;SDS011;57702;44.420;20.298;2022-10-18T00:25:03;2.42;;;2.22;;
70297;SDS011;57702;44.420;20.298;2022-10-18T00:27:30;8.55;;;3.42;;
70297;SDS011;57702;44.420;20.298;2022-10-18T00:29:56;7.13;;;2.70;;
70297;SDS011;57702;44.420;20.298;2022-10-18T00:32:22;2.35;;;2.00;;
70297;SDS011;57702;44.420;20.298;2022-10-18T00:34:49;2.80;;;2.63;;
70297;SDS011;57702;44.420;20.298;2022-10-18T00:37:15;1.80;;;1.70;;
70297;SDS011;57702;44.420;20.298;2022-10-18T00:39:41;3.67;;;3.35;;
70297;SDS011;57702;44.420;20.298;2022-10-18T00:42:09;7.72;;;2.65;;
70297;SDS011;57702;44.420;20.298;2022-10-18T00:47:05;3.15;;;2.10;;
70297;SDS011;57702;44.420;20.298;2022-10-18T00:49:36;9.93;;;1.98;;
70297;SDS011;57702;44.420;20.298;2022-10-18T00:52:12;4.07;;;2.78;;
70297;SDS011;57702;44.420;20.298;2022-10-18T00:54:40;13.10;;;3.83;;
70297;SDS011;57702;44.420;20.298;2022-10-18T00:57:07;2.90;;;1.90;;
70297;SDS011;57702;44.420;20.298;2022-10-18T00:59:34;1.35;;;1.27;;
70297;SDS011;57702;44.420;20.298;2022-10-18T01:02:00;6.93;;;1.95;;
70297;SDS011;57702;44.420;20.298;2022-10-18T01:04:27;2.30;;;1.70;;
70297;SDS011;57702;44.420;20.298;2022-10-18T01:07:09;3.08;;;1.42;;
70297;SDS011;57702;44.420;20.298;2022-10-18T01:09:46;5.35;;;2.85;;
70297;SDS011;57702;44.420;20.298;2022-10-18T01:12:33;4.45;;;2.47;;
70297;SDS011;57702;44.420;20.298;2022-10-18T01:15:21;11.15;;;3.17;;
70297;SDS011;57702;44.420;20.298;2022-10-18T01:35:48;4.63;;;2.72;;
70297;SDS011;57702;44.420;20.298;2022-10-18T01:38:16;5.78;;;2.75;;
70297;SDS011;57702;44.420;20.298;2022-10-18T01:40:44;14.90;;;4.43;;
70297;SDS011;57702;44.420;20.298;2022-10-18T01:43:12;6.57;;;3.15;;
70297;SDS011;57702;44.420;20.298;2022-10-18T01:45:38;6.13;;;3.10;;
70297;SDS011;57702;44.420;20.298;2022-10-18T01:48:05;7.40;;;1.85;;
70297;SDS011;57702;44.420;20.298;2022-10-18T01:50:32;5.43;;;3.35;;
70297;SDS011;57702;44.420;20.298;2022-10-18T01:52:59;4.75;;;2.53;;
70297;SDS011;57702;44.420;20.298;2022-10-18T01:55:30;7.22;;;2.75;;
70297;SDS011;57702;44.420;20.298;2022-10-18T01:58:03;4.05;;;3.58;;
70297;SDS011;57702;44.420;20.298;2022-10-18T02:00:36;3.30;;;2.90;;
70297;SDS011;57702;44.420;20.298;2022-10-18T02:08:05;6.45;;;2.50;;
70297;SDS011;57702;44.420;20.298;2022-10-18T02:10:35;2.80;;;2.00;;
70297;SDS011;57702;44.420;20.298;2022-10-18T02:13:03;1.73;;;1.60;;
70297;SDS011;57702;44.420;20.298;2022-10-18T02:15:32;1.85;;;1.75;;
70297;SDS011;57702;44.420;20.298;2022-10-18T02:18:00;6.78;;;1.67;;
70297;SDS011;57702;44.420;20.298;2022-10-18T02:20:26;1.73;;;1.63;;
70297;SDS011;57702;44.420;20.298;2022-10-18T02:22:53;5.47;;;2.03;;
70297;SDS011;57702;44.420;20.298;2022-10-18T02:25:22;0.82;;;0.82;;
70297;SDS011;57702;44.420;20.298;2022-10-18T02:27:48;5.60;;;3.28;;
70297;SDS011;57702;44.420;20.298;2022-10-18T02:30:15;2.75;;;1.75;;
70297;SDS011;57702;44.420;20.298;2022-10-18T02:35:24;2.95;;;1.90;;
70297;SDS011;57702;44.420;20.298;2022-10-18T02:37:51;1.20;;;1.20;;
70297;SDS011;57702;44.420;20.298;2022-10-18T02:40:18;7.25;;;2.47;;
70297;SDS011;57702;44.420;20.298;2022-10-18T02:42:50;1.33;;;1.25;;
70297;SDS011;57702;44.420;20.298;2022-10-18T02:45:18;2.03;;;1.92;;
70297;SDS011;57702;44.420;20.298;2022-10-18T02:47:44;3.72;;;1.92;;
70297;SDS011;57702;44.420;20.298;2022-10-18T02:50:10;2.90;;;2.08;;
70297;SDS011;57702;44.420;20.298;2022-10-18T02:52:37;1.55;;;1.45;;
70297;SDS011;57702;44.420;20.298;2022-10-18T02:55:03;0.90;;;0.90;;
70297;SDS011;57702;44.420;20.298;2022-10-18T02:57:30;2.30;;;1.60;;
70297;SDS011;57702;44.420;20.298;2022-10-18T02:59:56;3.15;;;1.88;;
70297;SDS011;57702;44.420;20.298;2022-10-18T03:02:22;1.48;;;1.40;;
70297;SDS011;57702;44.420;20.298;2022-10-18T03:04:48;10.88;;;1.48;;
70297;SDS011;57702;44.420;20.298;2022-10-18T03:07:14;4.53;;;1.23;;
70297;SDS011;57702;44.420;20.298;2022-10-18T03:09:41;1.73;;;1.63;;
70297;SDS011;57702;44.420;20.298;2022-10-18T03:12:07;2.28;;;2.08;;
70297;SDS011;57702;44.420;20.298;2022-10-18T03:14:34;1.23;;;1.23;;
70297;SDS011;57702;44.420;20.298;2022-10-18T03:17:00;2.75;;;1.63;;
70297;SDS011;57702;44.420;20.298;2022-10-18T03:19:26;3.83;;;2.25;;
70297;SDS011;57702;44.420;20.298;2022-10-18T03:21:52;8.25;;;2.42;;
70297;SDS011;57702;44.420;20.298;2022-10-18T03:24:18;3.65;;;2.90;;
70297;SDS011;57702;44.420;20.298;2022-10-18T03:26:44;3.08;;;2.53;;
70297;SDS011;57702;44.420;20.298;2022-10-18T03:29:10;3.58;;;3.20;;
70297;SDS011;57702;44.420;20.298;2022-10-18T03:31:36;2.30;;;2.10;;
70297;SDS011;57702;44.420;20.298;2022-10-18T03:34:03;1.58;;;1.55;;
70297;SDS011;57702;44.420;20.298;2022-10-18T03:36:29;2.75;;;1.85;;
70297;SDS011;57702;44.420;20.298;2022-10-18T03:38:55;1.70;;;1.60;;
70297;SDS011;57702;44.420;20.298;2022-10-18T03:41:21;2.08;;;1.98;;
70297;SDS011;57702;44.420;20.298;2022-10-18T03:43:47;2.17;;;1.50;;
70297;SDS011;57702;44.420;20.298;2022-10-18T03:46:13;1.52;;;1.42;;
70297;SDS011;57702;44.420;20.298;2022-10-18T03:48:39;1.52;;;1.38;;
70297;SDS011;57702;44.420;20.298;2022-10-18T03:51:05;3.63;;;1.65;;
70297;SDS011;57702;44.420;20.298;2022-10-18T03:53:32;1.15;;;1.15;;
70297;SDS011;57702;44.420;20.298;2022-10-18T03:55:58;2.00;;;1.30;;
70297;SDS011;57702;44.420;20.298;2022-10-18T03:58:24;1.75;;;1.65;;
70297;SDS011;57702;44.420;20.298;2022-10-18T04:00:50;1.50;;;1.40;;
70297;SDS011;57702;44.420;20.298;2022-10-18T04:03:17;1.90;;;1.80;;
70297;SDS011;57702;44.420;20.298;2022-10-18T04:05:44;2.10;;;1.98;;
70297;SDS011;57702;44.420;20.298;2022-10-18T04:08:10;1.77;;;1.65;;
70297;SDS011;57702;44.420;20.298;2022-10-18T04:10:37;2.50;;;2.22;;
70297;SDS011;57702;44.420;20.298;2022-10-18T04:13:04;1.15;;;1.15;;
70297;SDS011;57702;44.420;20.298;2022-10-18T04:15:30;3.03;;;2.28;;
70297;SDS011;57702;44.420;20.298;2022-10-18T04:17:56;2.15;;;1.65;;
70297;SDS011;57702;44.420;20.298;2022-10-18T04:20:23;7.82;;;2.25;;
70297;SDS011;57702;44.420;20.298;2022-10-18T04:22:49;2.33;;;2.13;;
70297;SDS011;57702;44.420;20.298;2022-10-18T04:25:15;2.10;;;2.00;;
70297;SDS011;57702;44.420;20.298;2022-10-18T04:27:41;2.65;;;2.33;;
70297;SDS011;57702;44.420;20.298;2022-10-18T04:30:08;4.45;;;2.65;;
70297;SDS011;57702;44.420;20.298;2022-10-18T04:32:34;1.60;;;1.50;;
70297;SDS011;57702;44.420;20.298;2022-10-18T04:35:01;3.75;;;3.55;;
70297;SDS011;57702;44.420;20.298;2022-10-18T04:37:27;2.15;;;1.95;;
70297;SDS011;57702;44.420;20.298;2022-10-18T04:39:53;5.28;;;2.67;;
70297;SDS011;57702;44.420;20.298;2022-10-18T04:42:20;1.45;;;1.45;;
70297;SDS011;57702;44.420;20.298;2022-10-18T04:44:46;3.30;;;2.47;;
70297;SDS011;57702;44.420;20.298;2022-10-18T04:47:12;1.77;;;1.67;;
70297;SDS011;57702;44.420;20.298;2022-10-18T04:49:38;3.67;;;2.65;;
70297;SDS011;57702;44.420;20.298;2022-10-18T04:52:05;3.25;;;2.30;;
70297;SDS011;57702;44.420;20.298;2022-10-18T04:54:31;1.98;;;1.88;;
70297;SDS011;57702;44.420;20.298;2022-10-18T04:56:57;4.60;;;2.28;;
70297;SDS011;57702;44.420;20.298;2022-10-18T04:59:23;2.05;;;1.73;;
70297;SDS011;57702;44.420;20.298;2022-10-18T05:01:49;1.83;;;1.73;;
70297;SDS011;57702;44.420;20.298;2022-10-18T05:04:15;2.50;;;2.40;;
70297;SDS011;57702;44.420;20.298;2022-10-18T05:06:42;1.25;;;1.25;;
70297;SDS011;57702;44.420;20.298;2022-10-18T05:09:08;1.25;;;1.20;;
70297;SDS011;57702;44.420;20.298;2022-10-18T05:11:34;1.95;;;1.63;;
70297;SDS011;57702;44.420;20.298;2022-10-18T05:14:00;2.28;;;2.08;;
70297;SDS011;57702;44.420;20.298;2022-10-18T05:16:26;8.77;;;2.63;;
70297;SDS011;57702;44.420;20.298;2022-10-18T05:18:52;9.40;;;3.67;;
70297;SDS011;57702;44.420;20.298;2022-10-18T05:21:18;1.45;;;1.35;;
70297;SDS011;57702;44.420;20.298;2022-10-18T05:23:45;3.25;;;2.22;;
70297;SDS011;57702;44.420;20.298;2022-10-18T05:26:11;2.80;;;2.50;;
70297;SDS011;57702;44.420;20.298;2022-10-18T05:28:37;2.03;;;1.63;;
70297;SDS011;57702;44.420;20.298;2022-10-18T05:31:03;1.27;;;1.25;;
70297;SDS011;57702;44.420;20.298;2022-10-18T05:33:30;5.55;;;3.00;;
70297;SDS011;57702;44.420;20.298;2022-10-18T05:35:57;3.08;;;2.72;;
70297;SDS011;57702;44.420;20.298;2022-10-18T05:38:23;4.78;;;1.65;;
70297;SDS011;57702;44.420;20.298;2022-10-18T05:40:49;1.20;;;0.80;;
70297;SDS011;57702;44.420;20.298;2022-10-18T05:43:16;1.23;;;1.13;;
70297;SDS011;57702;44.420;20.298;2022-10-18T05:45:49;2.42;;;1.85;;
70297;SDS011;57702;44.420;20.298;2022-10-18T05:48:15;9.75;;;3.03;;
70297;SDS011;57702;44.420;20.298;2022-10-18T05:50:41;2.15;;;1.90;;
70297;SDS011;57702;44.420;20.298;2022-10-18T05:53:08;1.83;;;1.73;;
70297;SDS011;57702;44.420;20.298;2022-10-18T05:55:34;5.55;;;2.25;;
70297;SDS011;57702;44.420;20.298;2022-10-18T05:58:00;6.53;;;3.22;;
70297;SDS011;57702;44.420;20.298;2022-10-18T06:00:27;2.22;;;1.50;;
70297;SDS011;57702;44.420;20.298;2022-10-18T06:02:53;3.80;;;3.45;;
70297;SDS011;57702;44.420;20.298;2022-10-18T06:05:19;4.57;;;3.05;;
70297;SDS011;57702;44.420;20.298;2022-10-18T06:07:46;2.20;;;2.00;;
70297;SDS011;57702;44.420;20.298;2022-10-18T06:10:12;3.13;;;2.72;;
70297;SDS011;57702;44.420;20.298;2022-10-18T06:12:38;5.65;;;2.85;;
70297;SDS011;57702;44.420;20.298;2022-10-18T06:15:04;1.48;;;1.38;;
70297;SDS011;57702;44.420;20.298;2022-10-18T06:17:30;1.85;;;1.15;;
70297;SDS011;57702;44.420;20.298;2022-10-18T06:19:57;1.92;;;1.77;;
70297;SDS011;57702;44.420;20.298;2022-10-18T06:22:23;1.45;;;1.35;;
70297;SDS011;57702;44.420;20.298;2022-10-18T06:24:49;11.02;;;1.90;;
70297;SDS011;57702;44.420;20.298;2022-10-18T06:27:15;2.30;;;1.60;;
70297;SDS011;57702;44.420;20.298;2022-10-18T06:29:41;1.20;;;1.20;;
70297;SDS011;57702;44.420;20.298;2022-10-18T06:32:08;1.60;;;1.50;;
70297;SDS011;57702;44.420;20.298;2022-10-18T06:34:34;5.18;;;1.48;;
70297;SDS011;57702;44.420;20.298;2022-10-18T06:37:00;2.47;;;1.25;;
70297;SDS011;57702;44.420;20.298;2022-10-18T06:39:26;3.95;;;1.25;;
70297;SDS011;57702;44.420;20.298;2022-10-18T06:41:53;1.80;;;1.38;;
70297;SDS011;57702;44.420;20.298;2022-10-18T06:44:22;3.88;;;1.83;;
70297;SDS011;57702;44.420;20.298;2022-10-18T06:46:48;2.55;;;1.90;;
70297;SDS011;57702;44.420;20.298;2022-10-18T06:49:15;7.28;;;2.70;;
70297;SDS011;57702;44.420;20.298;2022-10-18T06:51:42;4.60;;;2.20;;
70297;SDS011;57702;44.420;20.298;2022-10-18T06:54:08;1.08;;;1.02;;
70297;SDS011;57702;44.420;20.298;2022-10-18T06:56:35;2.72;;;1.92;;
70297;SDS011;57702;44.420;20.298;2022-10-18T06:59:01;3.63;;;2.30;;
70297;SDS011;57702;44.420;20.298;2022-10-18T07:01:28;1.98;;;1.88;;
70297;SDS011;57702;44.420;20.298;2022-10-18T07:03:54;2.42;;;2.22;;
70297;SDS011;57702;44.420;20.298;2022-10-18T07:06:21;4.13;;;1.75;;
70297;SDS011;57702;44.420;20.298;2022-10-18T07:08:48;1.08;;;1.08;;
70297;SDS011;57702;44.420;20.298;2022-10-18T07:11:17;2.50;;;1.58;;
70297;SDS011;57702;44.420;20.298;2022-10-18T07:13:44;1.77;;;1.67;;
70297;SDS011;57702;44.420;20.298;2022-10-18T07:16:14;2.17;;;1.88;;
70297;SDS011;57702;44.420;20.298;2022-10-18T07:18:43;1.67;;;1.58;;
70297;SDS011;57702;44.420;20.298;2022-10-18T07:21:10;1.65;;;1.48;;
70297;SDS011;57702;44.420;20.298;2022-10-18T07:23:37;2.38;;;1.98;;
70297;SDS011;57702;44.420;20.298;2022-10-18T07:26:10;1.35;;;1.33;;
70297;SDS011;57702;44.420;20.298;2022-10-18T07:28:36;1.80;;;1.70;;
70297;SDS011;57702;44.420;20.298;2022-10-18T07:31:03;2.08;;;1.83;;
70297;SDS011;57702;44.420;20.298;2022-10-18T07:33:30;1.55;;;1.45;;
70297;SDS011;57702;44.420;20.298;2022-10-18T07:35:59;1.80;;;1.70;;
70297;SDS011;57702;44.420;20.298;2022-10-18T07:38:26;2.50;;;2.33;;
70297;SDS011;57702;44.420;20.298;2022-10-18T07:40:55;1.27;;;1.15;;
70297;SDS011;57702;44.420;20.298;2022-10-18T07:43:22;1.20;;;1.17;;
70297;SDS011;57702;44.420;20.298;2022-10-18T07:45:56;1.33;;;0.90;;
70297;SDS011;57702;44.420;20.298;2022-10-18T07:48:22;1.45;;;1.33;;
70297;SDS011;57702;44.420;20.298;2022-10-18T07:50:49;4.00;;;2.38;;
70297;SDS011;57702;44.420;20.298;2022-10-18T07:53:15;1.38;;;1.05;;
70297;SDS011;57702;44.420;20.298;2022-10-18T07:55:41;2.40;;;1.23;;
70297;SDS011;57702;44.420;20.298;2022-10-18T07:58:09;11.10;;;1.58;;
70297;SDS011;57702;44.420;20.298;2022-10-18T08:00:35;3.33;;;1.52;;
70297;SDS011;57702;44.420;20.298;2022-10-18T08:03:01;2.05;;;1.13;;
70297;SDS011;57702;44.420;20.298;2022-10-18T08:05:27;3.47;;;2.75;;
70297;SDS011;57702;44.420;20.298;2022-10-18T08:07:54;2.55;;;1.35;;
70297;SDS011;57702;44.420;20.298;2022-10-18T08:10:21;1.88;;;1.77;;
70297;SDS011;57702;44.420;20.298;2022-10-18T08:12:48;1.20;;;1.05;;
70297;SDS011;57702;44.420;20.298;2022-10-18T08:15:15;2.05;;;1.95;;
70297;SDS011;57702;44.420;20.298;2022-10-18T08:17:41;3.42;;;1.52;;
70297;SDS011;57702;44.420;20.298;2022-10-18T08:20:10;1.70;;;1.60;;
70297;SDS011;57702;44.420;20.298;2022-10-18T08:22:36;1.13;;;1.13;;
70297;SDS011;57702;44.420;20.298;2022-10-18T08:25:03;2.65;;;1.17;;
70297;SDS011;57702;44.420;20.298;2022-10-18T08:27:29;2.55;;;1.60;;
70297;SDS011;57702;44.420;20.298;2022-10-18T08:29:55;1.00;;;1.00;;
70297;SDS011;57702;44.420;20.298;2022-10-18T08:32:24;3.10;;;1.20;;
70297;SDS011;57702;44.420;20.298;2022-10-18T08:34:51;3.40;;;1.40;;
70297;SDS011;57702;44.420;20.298;2022-10-18T08:37:17;0.50;;;0.50;;
70297;SDS011;57702;44.420;20.298;2022-10-18T08:39:43;1.70;;;0.70;;
70297;SDS011;57702;44.420;20.298;2022-10-18T08:42:19;1.27;;;1.23;;
70297;SDS011;57702;44.420;20.298;2022-10-18T08:44:49;0.80;;;0.80;;
70297;SDS011;57702;44.420;20.298;2022-10-18T08:47:35;1.10;;;1.00;;
70297;SDS011;57702;44.420;20.298;2022-10-18T08:50:12;0.68;;;0.63;;
70297;SDS011;57702;44.420;20.298;2022-10-18T08:52:44;1.40;;;0.88;;
70297;SDS011;57702;44.420;20.298;2022-10-18T08:55:28;0.80;;;0.80;;
70297;SDS011;57702;44.420;20.298;2022-10-18T08:58:00;1.80;;;1.50;;
70297;SDS011;57702;44.420;20.298;2022-10-18T09:00:27;11.90;;;1.40;;
70297;SDS011;57702;44.420;20.298;2022-10-18T09:05:33;2.17;;;1.25;;
70297;SDS011;57702;44.420;20.298;2022-10-18T09:16:03;1.58;;;1.48;;
70297;SDS011;57702;44.420;20.298;2022-10-18T09:21:20;2.22;;;1.77;;
70297;SDS011;57702;44.420;20.298;2022-10-18T09:23:49;1.00;;;0.95;;
70297;SDS011;57702;44.420;20.298;2022-10-18T09:26:19;0.98;;;0.93;;
70297;SDS011;57702;44.420;20.298;2022-10-18T09:34:00;1.90;;;1.30;;
70297;SDS011;57702;44.420;20.298;2022-10-18T09:36:34;0.75;;;0.75;;
70297;SDS011;57702;44.420;20.298;2022-10-18T09:39:02;1.55;;;0.73;;
70297;SDS011;57702;44.420;20.298;2022-10-18T09:44:17;1.52;;;0.88;;
70297;SDS011;57702;44.420;20.298;2022-10-18T09:46:50;0.95;;;0.80;;
70297;SDS011;57702;44.420;20.298;2022-10-18T09:49:30;1.52;;;0.98;;
70297;SDS011;57702;44.420;20.298;2022-10-18T09:51:58;1.13;;;0.85;;
70297;SDS011;57702;44.420;20.298;2022-10-18T09:54:30;0.52;;;0.43;;
70297;SDS011;57702;44.420;20.298;2022-10-18T09:57:06;0.40;;;0.40;;
70297;SDS011;57702;44.420;20.298;2022-10-18T09:59:35;0.50;;;0.50;;
70297;SDS011;57702;44.420;20.298;2022-10-18T10:02:03;0.98;;;0.60;;
70297;SDS011;57702;44.420;20.298;2022-10-18T10:04:29;0.40;;;0.40;;
70297;SDS011;57702;44.420;20.298;2022-10-18T10:06:56;3.30;;;1.25;;
70297;SDS011;57702;44.420;20.298;2022-10-18T10:09:25;1.15;;;1.08;;
70297;SDS011;57702;44.420;20.298;2022-10-18T10:11:53;0.95;;;0.95;;
70297;SDS011;57702;44.420;20.298;2022-10-18T10:14:23;0.73;;;0.73;;
70297;SDS011;57702;44.420;20.298;2022-10-18T10:19:19;2.47;;;0.65;;
70297;SDS011;57702;44.420;20.298;2022-10-18T10:21:46;0.30;;;0.30;;
70297;SDS011;57702;44.420;20.298;2022-10-18T10:24:20;0.57;;;0.57;;
70297;SDS011;57702;44.420;20.298;2022-10-18T10:26:46;0.57;;;0.57;;
70297;SDS011;57702;44.420;20.298;2022-10-18T10:32:00;1.10;;;1.00;;
70297;SDS011;57702;44.420;20.298;2022-10-18T10:34:27;1.10;;;0.77;;
70297;SDS011;57702;44.420;20.298;2022-10-18T10:36:54;0.40;;;0.40;;
70297;SDS011;57702;44.420;20.298;2022-10-18T10:39:22;0.52;;;0.52;;
70297;SDS011;57702;44.420;20.298;2022-10-18T10:41:52;0.40;;;0.40;;
70297;SDS011;57702;44.420;20.298;2022-10-18T10:44:20;1.10;;;0.95;;
70297;SDS011;57702;44.420;20.298;2022-10-18T10:46:47;0.47;;;0.47;;
70297;SDS011;57702;44.420;20.298;2022-10-18T10:51:43;0.73;;;0.73;;
70297;SDS011;57702;44.420;20.298;2022-10-18T10:54:20;1.15;;;0.95;;
70297;SDS011;57702;44.420;20.298;2022-10-18T10:56:57;0.80;;;0.80;;
70297;SDS011;57702;44.420;20.298;2022-10-18T10:59:26;0.43;;;0.43;;
70297;SDS011;57702;44.420;20.298;2022-10-18T11:02:10;2.35;;;0.93;;
70297;SDS011;57702;44.420;20.298;2022-10-18T11:04:38;1.25;;;1.15;;
70297;SDS011;57702;44.420;20.298;2022-10-18T11:12:03;0.93;;;0.65;;
70297;SDS011;57702;44.420;20.298;2022-10-18T11:14:33;0.73;;;0.73;;
70297;SDS011;57702;44.420;20.298;2022-10-18T11:17:06;2.15;;;1.40;;
70297;SDS011;57702;44.420;20.298;2022-10-18T11:22:05;2.65;;;0.60;;
70297;SDS011;57702;44.420;20.298;2022-10-18T11:24:34;0.75;;;0.75;;
70297;SDS011;57702;44.420;20.298;2022-10-18T11:34:37;1.30;;;1.20;;
70297;SDS011;57702;44.420;20.298;2022-10-18T11:40:00;0.88;;;0.77;;
70297;SDS011;57702;44.420;20.298;2022-10-18T11:47:34;0.82;;;0.73;;
70297;SDS011;57702;44.420;20.298;2022-10-18T11:55:47;0.60;;;0.60;;
70297;SDS011;57702;44.420;20.298;2022-10-18T12:00:45;0.50;;;0.50;;
70297;SDS011;57702;44.420;20.298;2022-10-18T12:03:32;0.50;;;0.50;;
70297;SDS011;57702;44.420;20.298;2022-10-18T12:06:01;0.30;;;0.30;;
70297;SDS011;57702;44.420;20.298;2022-10-18T12:08:31;0.30;;;0.30;;
70297;SDS011;57702;44.420;20.298;2022-10-18T12:10:59;0.60;;;0.60;;
70297;SDS011;57702;44.420;20.298;2022-10-18T12:13:34;8.27;;;2.25;;
70297;SDS011;57702;44.420;20.298;2022-10-18T12:16:02;1.00;;;0.90;;
70297;SDS011;57702;44.420;20.298;2022-10-18T12:18:29;0.80;;;0.80;;
70297;SDS011;57702;44.420;20.298;2022-10-18T12:20:57;0.30;;;0.30;;
70297;SDS011;57702;44.420;20.298;2022-10-18T12:25:51;2.63;;;0.70;;
70297;SDS011;57702;44.420;20.298;2022-10-18T12:30:59;1.45;;;0.95;;
70297;SDS011;57702;44.420;20.298;2022-10-18T12:33:29;0.77;;;0.77;;
70297;SDS011;57702;44.420;20.298;2022-10-18T12:36:04;9.18;;;0.60;;
70297;SDS011;57702;44.420;20.298;2022-10-18T12:38:34;0.43;;;0.43;;
70297;SDS011;57702;44.420;20.298;2022-10-18T12:41:01;6.28;;;1.15;;
70297;SDS011;57702;44.420;20.298;2022-10-18T12:43:29;0.45;;;0.45;;
70297;SDS011;57702;44.420;20.298;2022-10-18T12:46:01;0.57;;;0.52;;
70297;SDS011;57702;44.420;20.298;2022-10-18T12:51:03;0.50;;;0.38;;
70297;SDS011;57702;44.420;20.298;2022-10-18T12:53:30;0.32;;;0.32;;
70297;SDS011;57702;44.420;20.298;2022-10-18T12:58:41;0.47;;;0.47;;
70297;SDS011;57702;44.420;20.298;2022-10-18T13:01:08;0.20;;;0.20;;
70297;SDS011;57702;44.420;20.298;2022-10-18T13:03:51;1.75;;;0.80;;
70297;SDS011;57702;44.420;20.298;2022-10-18T13:06:18;0.47;;;0.47;;
70297;SDS011;57702;44.420;20.298;2022-10-18T13:08:44;0.50;;;0.45;;
70297;SDS011;57702;44.420;20.298;2022-10-18T13:16:07;1.55;;;0.75;;
70297;SDS011;57702;44.420;20.298;2022-10-18T13:24:00;1.23;;;0.70;;
70297;SDS011;57702;44.420;20.298;2022-10-18T13:33:53;0.63;;;0.63;;
70297;SDS011;57702;44.420;20.298;2022-10-18T13:36:23;0.60;;;0.57;;
70297;SDS011;57702;44.420;20.298;2022-10-18T13:41:26;1.23;;;0.75;;
70297;SDS011;57702;44.420;20.298;2022-10-18T13:46:19;0.65;;;0.45;;
70297;SDS011;57702;44.420;20.298;2022-10-18T13:54:06;0.45;;;0.45;;
70297;SDS011;57702;44.420;20.298;2022-10-18T13:57:19;1.05;;;0.40;;
70297;SDS011;57702;44.420;20.298;2022-10-18T14:04:41;3.90;;;1.08;;
70297;SDS011;57702;44.420;20.298;2022-10-18T14:07:11;2.22;;;0.63;;
70297;SDS011;57702;44.420;20.298;2022-10-18T14:09:53;0.55;;;0.55;;
70297;SDS011;57702;44.420;20.298;2022-10-18T14:15:01;1.45;;;0.82;;
70297;SDS011;57702;44.420;20.298;2022-10-18T14:20:03;0.80;;;0.60;;
70297;SDS011;57702;44.420;20.298;2022-10-18T14:25:00;0.77;;;0.77;;
70297;SDS011;57702;44.420;20.298;2022-10-18T14:27:28;0.80;;;0.80;;
70297;SDS011;57702;44.420;20.298;2022-10-18T14:32:41;9.60;;;1.02;;
70297;SDS011;57702;44.420;20.298;2022-10-18T14:35:14;1.45;;;1.35;;
70297;SDS011;57702;44.420;20.298;2022-10-18T14:37:41;0.60;;;0.60;;
70297;SDS011;57702;44.420;20.298;2022-10-18T14:42:52;0.98;;;0.65;;
70297;SDS011;57702;44.420;20.298;2022-10-18T14:45:18;30.52;;;11.07;;
70297;SDS011;57702;44.420;20.298;2022-10-18T14:47:45;9.63;;;8.60;;
70297;SDS011;57702;44.420;20.298;2022-10-18T14:50:19;7.65;;;6.05;;
70297;SDS011;57702;44.420;20.298;2022-10-18T14:52:45;3.72;;;3.42;;
70297;SDS011;57702;44.420;20.298;2022-10-18T14:55:14;5.88;;;2.60;;
70297;SDS011;57702;44.420;20.298;2022-10-18T14:57:42;6.13;;;4.40;;
70297;SDS011;57702;44.420;20.298;2022-10-18T15:00:13;19.95;;;8.27;;
70297;SDS011;57702;44.420;20.298;2022-10-18T15:02:43;10.20;;;5.47;;
70297;SDS011;57702;44.420;20.298;2022-10-18T15:05:17;5.45;;;3.42;;
70297;SDS011;57702;44.420;20.298;2022-10-18T15:07:43;6.38;;;3.05;;
70297;SDS011;57702;44.420;20.298;2022-10-18T15:10:20;14.25;;;5.10;;
70297;SDS011;57702;44.420;20.298;2022-10-18T15:12:47;6.93;;;3.78;;
70297;SDS011;57702;44.420;20.298;2022-10-18T15:15:17;16.20;;;9.55;;
70297;SDS011;57702;44.420;20.298;2022-10-18T15:17:45;5.70;;;5.17;;
70297;SDS011;57702;44.420;20.298;2022-10-18T15:20:19;4.97;;;3.40;;
70297;SDS011;57702;44.420;20.298;2022-10-18T15:22:45;3.58;;;2.03;;
70297;SDS011;57702;44.420;20.298;2022-10-18T15:27:48;76.85;;;12.05;;
70297;SDS011;57702;44.420;20.298;2022-10-18T15:32:48;73.97;;;14.88;;
70297;SDS011;57702;44.420;20.298;2022-10-18T15:35:15;46.92;;;12.15;;
70297;SDS011;57702;44.420;20.298;2022-10-18T15:37:43;67.45;;;14.10;;
70297;SDS011;57702;44.420;20.298;2022-10-18T15:42:42;68.95;;;16.95;;
70297;SDS011;57702;44.420;20.298;2022-10-18T15:45:31;27.70;;;10.05;;
70297;SDS011;57702;44.420;20.298;2022-10-18T15:50:49;18.33;;;7.68;;
70297;SDS011;57702;44.420;20.298;2022-10-18T15:55:50;26.83;;;6.25;;
70297;SDS011;57702;44.420;20.298;2022-10-18T15:58:18;28.90;;;7.47;;
70297;SDS011;57702;44.420;20.298;2022-10-18T16:00:46;34.15;;;7.68;;
70297;SDS011;57702;44.420;20.298;2022-10-18T16:03:12;16.00;;;4.25;;
70297;SDS011;57702;44.420;20.298;2022-10-18T16:05:39;34.90;;;5.15;;
70297;SDS011;57702;44.420;20.298;2022-10-18T16:08:05;28.33;;;6.80;;
70297;SDS011;57702;44.420;20.298;2022-10-18T16:10:31;22.02;;;6.63;;
70297;SDS011;57702;44.420;20.298;2022-10-18T16:12:58;22.02;;;6.63;;
70297;SDS011;57702;44.420;20.298;2022-10-18T16:15:24;21.48;;;5.45;;
70297;SDS011;57702;44.420;20.298;2022-10-18T16:17:50;6.18;;;2.70;;
70297;SDS011;57702;44.420;20.298;2022-10-18T16:20:20;10.68;;;4.68;;
70297;SDS011;57702;44.420;20.298;2022-10-18T16:22:47;10.85;;;4.35;;
70297;SDS011;57702;44.420;20.298;2022-10-18T16:25:13;16.60;;;4.45;;
70297;SDS011;57702;44.420;20.298;2022-10-18T16:27:39;13.80;;;3.95;;
70297;SDS011;57702;44.420;20.298;2022-10-18T16:30:26;9.98;;;3.70;;
70297;SDS011;57702;44.420;20.298;2022-10-18T16:32:52;11.98;;;4.50;;
70297;SDS011;57702;44.420;20.298;2022-10-18T16:35:18;10.45;;;4.35;;
70297;SDS011;57702;44.420;20.298;2022-10-18T16:37:44;12.10;;;2.97;;
70297;SDS011;57702;44.420;20.298;2022-10-18T16:42:39;4.60;;;2.55;;
70297;SDS011;57702;44.420;20.298;2022-10-18T16:45:06;6.65;;;2.60;;
70297;SDS011;57702;44.420;20.298;2022-10-18T16:47:32;7.47;;;2.78;;
70297;SDS011;57702;44.420;20.298;2022-10-18T16:49:58;3.88;;;2.38;;
70297;SDS011;57702;44.420;20.298;2022-10-18T16:52:27;1.65;;;1.55;;
70297;SDS011;57702;44.420;20.298;2022-10-18T16:54:53;2.92;;;1.70;;
70297;SDS011;57702;44.420;20.298;2022-10-18T16:57:19;2.88;;;1.45;;
70297;SDS011;57702;44.420;20.298;2022-10-18T16:59:45;5.78;;;1.52;;
70297;SDS011;57702;44.420;20.298;2022-10-18T17:02:11;2.67;;;2.33;;
70297;SDS011;57702;44.420;20.298;2022-10-18T17:04:37;2.17;;;2.00;;
70297;SDS011;57702;44.420;20.298;2022-10-18T17:07:03;3.00;;;1.73;;
70297;SDS011;57702;44.420;20.298;2022-10-18T17:09:30;3.47;;;2.83;;
70297;SDS011;57702;44.420;20.298;2022-10-18T17:11:58;2.45;;;1.63;;
70297;SDS011;57702;44.420;20.298;2022-10-18T17:14:25;3.50;;;2.55;;
70297;SDS011;57702;44.420;20.298;2022-10-18T17:16:51;4.82;;;2.05;;
70297;SDS011;57702;44.420;20.298;2022-10-18T17:19:17;6.53;;;3.00;;